Flight Track Log - Related Links

Times and Time Zones

All times are in EDT time to prevent confusion due to time zone crossing. See the N501RL flight status page for this flight to view local times or setup timezone preferences in your user account.


Time Position Orientation Groundspeed Altitude Reporting Facility
EDT Latitude Longitude Course Direction KTS MPH feet Rate Location/Type
Wed 03:04:48 PM 36.8847 -76.2150 210° Southwest 162 186 400  Level Washington Center
Wed 03:06:00 PM 36.8322 -76.2536 210° Southwest 192 221 2,900 2,129 Climbing Washington Center
Wed 03:06:21 PM 36.8175 -76.2614 203° Southwest 190 219 3,700 2,139 Climbing Washington Center
Wed 03:07:55 PM 36.8150 -76.3675 268° West 188 216 7,000 1,983 Climbing Washington Center
Wed 03:08:22 PM 36.8086 -76.3908 251° West 198 228 7,700 1,574 Climbing Washington Center
Wed 03:08:56 PM 36.7997 -76.4322 255° West 201 231 8,600 1,475 Climbing Washington Center
Wed 03:09:23 PM 36.7975 -76.4583 264° West 205 236 9,200 1,556 Climbing Washington Center
Wed 03:09:50 PM 36.7911 -76.4997 259° West 208 239 10,000 1,600 Climbing Washington Center
Wed 03:10:23 PM 36.7867 -76.5281 259° West 210 242 10,800 1,582 Climbing Washington Center
Wed 03:11:21 PM 36.7756 -76.6006 259° West 222 255 12,400 1,600 Climbing Washington Center
Wed 03:12:23 PM 36.7644 -76.6731 259° West 222 255 14,000 1,600 Climbing Washington Center
Wed 03:13:21 PM 36.7533 -76.7456 259° West 222 255 15,600 1,525 Climbing Washington Center
Wed 03:14:21 PM 36.7422 -76.8206 260° West 222 255 17,000 1,339 Climbing Washington Center
Wed 03:15:22 PM 36.7311 -76.8981 260° West 222 255 18,300 1,339 Climbing Washington Center
Wed 03:16:22 PM 36.7197 -76.9783 260° West 222 255 19,700 1,412 Climbing Washington Center
Wed 03:17:21 PM 36.6958 -77.0503 248° West 227 261 21,100 1,361 Climbing Washington Center
Wed 03:18:21 PM 36.6636 -77.1247 242° Southwest 237 273 22,400 1,300 Climbing Washington Center
Wed 03:19:21 PM 36.6294 -77.1967 239° Southwest 242 278 23,700 793 Climbing Washington Center
Wed 03:20:22 PM 36.5928 -77.2736 239° Southwest 252 290 24,000 149 Climbing Washington Center
Wed 03:21:22 PM 36.5519 -77.3631 240° Southwest 277 319 24,000 347 Level Washington Center
Wed 03:22:23 PM 36.5108 -77.4525 240° Southwest 294 338 24,700 1,400 Climbing Washington Center
Wed 03:23:22 PM 36.4742 -77.5344 241° Southwest 289 333 26,800 1,664 Climbing Washington Center
Wed 03:24:22 PM 36.4397 -77.6058 239° Southwest 267 307 28,000 1,000 Climbing Washington Center
Wed 03:25:22 PM 36.4072 -77.6722 239° Southwest 255 293 28,800 843 Climbing Washington Center
Wed 03:26:23 PM 36.3744 -77.7486 242° Southwest 250 288 29,700 793 Climbing Washington Center
Wed 03:27:23 PM 36.3356 -77.8250 238° Southwest 256 295 30,400 814 Climbing Washington Center
Wed 03:28:21 PM 36.2986 -77.9011 239° Southwest 256 295 31,300 857 Climbing Washington Center
Wed 03:29:22 PM 36.2639 -77.9775 241° Southwest 256 295 32,100 639 Climbing Washington Center
Wed 03:30:23 PM 36.2311 -78.0511 241° Southwest 256 295 32,600 545 Climbing Washington Center
Wed 03:31:23 PM 36.1917 -78.1297 238° Southwest 256 295 33,200 550 Climbing Washington Center
Wed 03:32:23 PM 36.1547 -78.2056 239° Southwest 261 300 33,700 508 Climbing Washington Center
Wed 03:33:21 PM 36.1197 -78.2817 240° Southwest 261 300 34,200 504 Climbing Washington Center
Wed 03:34:22 PM 36.0803 -78.3600 238° Southwest 266 306 34,700 496 Climbing Washington Center
Wed 03:35:22 PM 36.0431 -78.4383 240° Southwest 266 306 35,200 500 Climbing Washington Center
Wed 03:36:22 PM 36.0056 -78.5164 239° Southwest 266 306 35,700 397 Climbing Washington Center
Wed 03:37:23 PM 35.9683 -78.5922 239° Southwest 266 306 36,000 149 Climbing Washington Center
Wed 03:38:23 PM 35.9286 -78.6728 239° Southwest 266 306 36,000  Level Washington Center
Wed 03:39:21 PM 35.8889 -78.7558 239° Southwest 271 312 36,000  Level Washington Center
Wed 03:40:21 PM 35.8511 -78.8414 241° Southwest 277 319 36,000  Level Washington Center
Wed 03:41:22 PM 35.8133 -78.9294 242° Southwest 283 326 36,000  Level Washington Center
Wed 03:43:31 PM 35.7322 -79.1194 242° Southwest 304 350 36,000  Level Atlanta Center
Wed 03:44:31 PM 35.6942 -79.2086 242° Southwest 304 350 36,000  Level Atlanta Center
Wed 03:45:31 PM 35.6561 -79.3003 243° Southwest 299 344 36,000  Level Atlanta Center
Wed 03:46:31 PM 35.6175 -79.3867 241° Southwest 299 344 36,000  Level Atlanta Center
Wed 03:47:31 PM 35.5792 -79.4758 242° Southwest 299 344 36,000  Level Atlanta Center
Wed 03:48:31 PM 35.5406 -79.5622 241° Southwest 299 344 36,000  Level Atlanta Center
Wed 03:49:31 PM 35.5022 -79.6536 243° Southwest 299 344 36,000  Level Atlanta Center
Wed 03:50:31 PM 35.4636 -79.7422 242° Southwest 299 344 36,000  Level Atlanta Center
Wed 03:51:31 PM 35.4250 -79.8311 242° Southwest 299 344 36,000  Level Atlanta Center
Wed 03:52:31 PM 35.3864 -79.9222 243° Southwest 304 350 36,000  Level Atlanta Center
Wed 03:53:31 PM 35.3417 -80.0186 240° Southwest 304 350 36,000  Level Atlanta Center
Wed 03:54:31 PM 35.3050 -80.1119 244° Southwest 298 343 36,000  Level Atlanta Center
Wed 03:55:31 PM 35.2639 -80.2003 240° Southwest 298 343 36,000  Level Atlanta Center
Wed 03:56:31 PM 35.2269 -80.2886 243° Southwest 301 346 36,000  Level Atlanta Center
Wed 03:57:31 PM 35.1839 -80.3794 240° Southwest 307 353 36,000  Level Atlanta Center
Wed 03:58:31 PM 35.1447 -80.4700 242° Southwest 307 353 36,000  Level Atlanta Center
Wed 03:59:31 PM 35.1078 -80.5581 243° Southwest 307 353 36,000  Level Atlanta Center
Wed 04:00:31 PM 35.0683 -80.6458 241° Southwest 301 346 36,000  Level Atlanta Center
Wed 04:01:31 PM 35.0331 -80.7258 242° Southwest 301 346 36,000  Level Atlanta Center
Wed 04:02:31 PM 34.9917 -80.8139 240° Southwest 301 346 36,000  Level Atlanta Center
Wed 04:03:31 PM 34.9522 -80.9067 243° Southwest 301 346 36,000  Level Atlanta Center
Wed 04:04:31 PM 34.9128 -80.9967 242° Southwest 301 346 36,000  Level Atlanta Center
Wed 04:05:31 PM 34.8711 -81.0869 241° Southwest 301 346 36,000  Level Atlanta Center
Wed 04:06:31 PM 34.8275 -81.1869 242° Southwest 301 346 36,000  Level Atlanta Center
Wed 04:07:31 PM 34.7858 -81.2769 241° Southwest 306 352 36,000  Level Atlanta Center
Wed 04:08:31 PM 34.7461 -81.3719 243° Southwest 317 365 36,000  Level Atlanta Center
Wed 04:09:31 PM 34.7044 -81.4642 241° Southwest 317 365 36,000  Level Atlanta Center
Wed 04:10:31 PM 34.6622 -81.5539 240° Southwest 312 359 36,000  Level Atlanta Center
Wed 04:11:31 PM 34.6222 -81.6408 241° Southwest 306 352 36,000  Level Atlanta Center
Wed 04:12:31 PM 34.5803 -81.7303 240° Southwest 306 352 36,000  Level Atlanta Center
Wed 04:13:31 PM 34.5400 -81.8172 241° Southwest 306 352 36,000  Level Atlanta Center
Wed 04:14:31 PM 34.4978 -81.9089 241° Southwest 306 352 36,000  Level Atlanta Center
Wed 04:15:31 PM 34.4578 -81.9981 241° Southwest 311 358 36,000  Level Atlanta Center
Wed 04:16:31 PM 34.4175 -82.0872 241° Southwest 311 358 36,000  Level Atlanta Center
Wed 04:17:31 PM 34.3769 -82.1739 240° Southwest 311 358 36,000  Level Atlanta Center
Wed 04:18:31 PM 34.3367 -82.2628 241° Southwest 311 358 36,000  Level Atlanta Center
Wed 04:19:31 PM 34.2939 -82.3517 240° Southwest 311 358 36,000  Level Atlanta Center
Wed 04:20:31 PM 34.2556 -82.4378 242° Southwest 311 358 36,000  Level Atlanta Center
Wed 04:21:31 PM 34.2128 -82.5267 240° Southwest 311 358 36,000  Level Atlanta Center
Wed 04:22:31 PM 34.1742 -82.6078 240° Southwest 311 358 36,000  Level Atlanta Center
Wed 04:23:31 PM 34.1333 -82.6936 240° Southwest 311 358 36,000  Level Atlanta Center
Wed 04:24:31 PM 34.0925 -82.7844 242° Southwest 311 358 36,000  Level Atlanta Center
Wed 04:25:31 PM 34.0456 -82.8781 239° Southwest 311 358 36,000  Level Atlanta Center
Wed 04:26:31 PM 34.0067 -82.9664 242° Southwest 311 358 36,000  Level Atlanta Center
Wed 04:27:31 PM 33.9656 -83.0494 239° Southwest 311 358 36,000  Level Atlanta Center
Wed 04:28:31 PM 33.9267 -83.1375 242° Southwest 305 351 36,000  Level Atlanta Center
Wed 04:29:31 PM 33.8833 -83.2206 238° Southwest 305 351 36,000  Level Atlanta Center
Wed 04:30:31 PM 33.8422 -83.3086 241° Southwest 300 345 36,000 -400 Level Atlanta Center
Wed 04:31:31 PM 33.7989 -83.3989 240° Southwest 300 345 35,200 -600 Descending Atlanta Center
Wed 04:32:31 PM 33.7575 -83.4892 241° Southwest 313 360 34,800 -450 Descending Atlanta Center
Wed 04:33:31 PM 33.7161 -83.5717 239° Southwest 318 366 34,300 -500 Descending Atlanta Center
Wed 04:34:31 PM 33.6725 -83.6619 240° Southwest 318 366 33,800 -500 Descending Atlanta Center
Wed 04:35:31 PM 33.6269 -83.7544 239° Southwest 318 366 33,300 -500 Descending Atlanta Center
Wed 04:36:31 PM 33.5833 -83.8467 240° Southwest 318 366 32,800 -550 Descending Atlanta Center
Wed 04:37:31 PM 33.5394 -83.9367 240° Southwest 311 358 32,200 -650 Descending Atlanta Center
Wed 04:38:31 PM 33.4936 -84.0289 239° Southwest 316 364 31,500 -1,050 Descending Atlanta Center
Wed 04:39:31 PM 33.4436 -84.1333 240° Southwest 323 372 30,100 -1,300 Descending Atlanta Center
Wed 04:40:31 PM 33.3933 -84.2303 238° Southwest 336 387 28,900 -1,200 Descending Atlanta Center
Wed 04:41:31 PM 33.3472 -84.3322 242° Southwest 346 398 27,700 -1,000 Descending Atlanta Center
Wed 04:42:31 PM 33.2969 -84.4314 239° Southwest 352 405 26,900 -800 Descending Atlanta Center
Wed 04:43:31 PM 33.2506 -84.5281 240° Southwest 352 405 26,100 -450 Descending Atlanta Center
Wed 04:44:31 PM 33.2042 -84.6247 240° Southwest 352 405 26,000 -50 Descending Atlanta Center
Wed 04:45:31 PM 33.1578 -84.7064 236° Southwest 340 391 26,000  Level Atlanta Center
Wed 04:46:31 PM 33.1011 -84.7828 228° Southwest 323 372 26,000  Level Atlanta Center
Wed 04:47:31 PM 33.0422 -84.8592 227° Southwest 318 366 26,000  Level Atlanta Center
Wed 04:48:31 PM 32.9853 -84.9353 228° Southwest 312 359 26,000 -400 Level Atlanta Center
Wed 04:49:31 PM 32.9264 -85.0139 228° Southwest 319 367 25,200 -950 Descending Atlanta Center
Wed 04:50:31 PM 32.8608 -85.0947 226° Southwest 329 379 24,100 -1,100 Descending Atlanta Center
Wed 04:51:31 PM 32.7953 -85.1831 229° Southwest 334 384 23,000 -1,300 Descending Atlanta Center
Wed 04:52:31 PM 32.7528 -85.2811 243° Southwest 334 384 21,500 -1,650 Descending Atlanta Center
Wed 04:53:31 PM 32.7161 -85.3819 247° West 334 384 19,700 -1,850 Descending Atlanta Center
Wed 04:54:31 PM 32.6733 -85.4825 243° Southwest 334 384 17,800 -1,850 Descending Atlanta Center
Wed 04:55:31 PM 32.6367 -85.5806 246° West 340 391 16,000 -2,100 Descending Atlanta Center
Wed 04:56:31 PM 32.5978 -85.6711 243° Southwest 327 376 13,600 -2,250 Descending Atlanta Center
Wed 04:57:31 PM 32.5611 -85.7617 244° Southwest 316 364 11,500 -1,550 Descending Atlanta Center
Wed 04:58:31 PM 32.5286 -85.8397 244° Southwest 294 338 10,500 -1,300 Descending Atlanta Center
Wed 04:59:31 PM 32.4983 -85.9131 244° Southwest 271 312 8,900 -1,750 Descending Atlanta Center
Wed 05:00:31 PM 32.4703 -85.9814 244° Southwest 248 285 7,000 -1,950 Descending Atlanta Center
Wed 05:01:31 PM 32.4319 -86.0322 228° Southwest 228 262 5,000 -1,500 Descending Atlanta Center
Wed 05:02:31 PM 32.3772 -86.0606 204° Southwest 212 244 4,000 -500 Descending Atlanta Center
Wed 05:03:31 PM 32.3369 -86.0842 206° Southwest 189 217 4,000  Level Atlanta Center
Wed 05:05:00 PM 32.3212 -86.2191 248° West  Level Estimated
Wed 05:12:00 PM 32.3000 -86.3833 239° Southwest  Level FlightAware Approximate

Login

Don't have an account? Register now (free) for customized features, flight alerts, and more!